sensor_id;sensor_type;location;lat;lon;timestamp;pressure;altitude;pressure_sealevel;temperature;humidity
10852;BME280;5479;52.046;6.314;2022-11-24T00:01:13;100223.47;;;7.56;100.00
10852;BME280;5479;52.046;6.314;2022-11-24T00:03:43;100226.25;;;7.53;100.00
10852;BME280;5479;52.046;6.314;2022-11-24T00:06:13;100221.91;;;7.52;100.00
10852;BME280;5479;52.046;6.314;2022-11-24T00:08:44;100232.44;;;7.52;100.00
10852;BME280;5479;52.046;6.314;2022-11-24T00:11:14;100228.72;;;7.40;100.00
10852;BME280;5479;52.046;6.314;2022-11-24T00:13:43;100227.72;;;7.43;100.00
10852;BME280;5479;52.046;6.314;2022-11-24T00:16:13;100223.72;;;7.51;100.00
10852;BME280;5479;52.046;6.314;2022-11-24T00:18:43;100229.75;;;7.53;100.00
10852;BME280;5479;52.046;6.314;2022-11-24T00:21:11;100225.34;;;7.54;100.00
10852;BME280;5479;52.046;6.314;2022-11-24T00:23:39;100230.59;;;7.54;100.00
10852;BME280;5479;52.046;6.314;2022-11-24T00:26:11;100228.47;;;7.60;100.00
10852;BME280;5479;52.046;6.314;2022-11-24T00:28:41;100223.28;;;7.59;100.00
10852;BME280;5479;52.046;6.314;2022-11-24T00:31:17;100227.59;;;7.60;100.00
10852;BME280;5479;52.046;6.314;2022-11-24T00:33:47;100226.09;;;7.56;100.00
10852;BME280;5479;52.046;6.314;2022-11-24T00:36:17;100221.75;;;7.55;100.00
10852;BME280;5479;52.046;6.314;2022-11-24T00:38:45;100228.31;;;7.48;100.00
10852;BME280;5479;52.046;6.314;2022-11-24T00:41:15;100229.06;;;7.50;100.00
10852;BME280;5479;52.046;6.314;2022-11-24T00:43:43;100230.66;;;7.52;100.00
10852;BME280;5479;52.046;6.314;2022-11-24T00:46:12;100227.38;;;7.49;100.00
10852;BME280;5479;52.046;6.314;2022-11-24T00:48:40;100229.66;;;7.55;100.00
10852;BME280;5479;52.046;6.314;2022-11-24T00:51:10;100229.22;;;7.47;100.00
10852;BME280;5479;52.046;6.314;2022-11-24T00:53:39;100228.91;;;7.53;100.00
10852;BME280;5479;52.046;6.314;2022-11-24T00:56:07;100236.81;;;7.53;100.00
10852;BME280;5479;52.046;6.314;2022-11-24T00:58:37;100229.75;;;7.53;100.00
10852;BME280;5479;52.046;6.314;2022-11-24T01:01:06;100237.91;;;7.49;100.00
10852;BME280;5479;52.046;6.314;2022-11-24T01:03:35;100243.19;;;7.49;100.00
10852;BME280;5479;52.046;6.314;2022-11-24T01:06:04;100251.09;;;7.49;100.00
10852;BME280;5479;52.046;6.314;2022-11-24T01:08:35;100255.41;;;7.50;100.00
10852;BME280;5479;52.046;6.314;2022-11-24T01:11:07;100259.91;;;7.48;100.00
10852;BME280;5479;52.046;6.314;2022-11-24T01:13:37;100262.38;;;7.51;100.00
10852;BME280;5479;52.046;6.314;2022-11-24T01:16:05;100268.84;;;7.61;100.00
10852;BME280;5479;52.046;6.314;2022-11-24T01:18:33;100265.28;;;7.62;100.00
10852;BME280;5479;52.046;6.314;2022-11-24T01:21:03;100273.63;;;7.54;100.00
10852;BME280;5479;52.046;6.314;2022-11-24T01:23:31;100266.31;;;7.59;100.00
10852;BME280;5479;52.046;6.314;2022-11-24T01:26:03;100265.63;;;7.56;100.00
10852;BME280;5479;52.046;6.314;2022-11-24T01:28:31;100265.72;;;7.54;100.00
10852;BME280;5479;52.046;6.314;2022-11-24T01:31:02;100275.56;;;7.51;100.00
10852;BME280;5479;52.046;6.314;2022-11-24T01:33:30;100279.63;;;7.41;100.00
10852;BME280;5479;52.046;6.314;2022-11-24T01:35:59;100276.81;;;7.44;100.00
10852;BME280;5479;52.046;6.314;2022-11-24T01:38:28;100277.81;;;7.41;100.00
10852;BME280;5479;52.046;6.314;2022-11-24T01:41:00;100280.56;;;7.40;100.00
10852;BME280;5479;52.046;6.314;2022-11-24T01:43:28;100286.00;;;7.37;100.00
10852;BME280;5479;52.046;6.314;2022-11-24T01:45:57;100286.31;;;7.30;100.00
10852;BME280;5479;52.046;6.314;2022-11-24T01:48:37;100296.53;;;7.37;100.00
10852;BME280;5479;52.046;6.314;2022-11-24T01:51:11;100288.63;;;7.37;100.00
10852;BME280;5479;52.046;6.314;2022-11-24T01:53:43;100280.56;;;7.40;100.00
10852;BME280;5479;52.046;6.314;2022-11-24T01:56:12;100282.28;;;7.41;100.00
10852;BME280;5479;52.046;6.314;2022-11-24T01:58:42;100288.03;;;7.47;100.00
10852;BME280;5479;52.046;6.314;2022-11-24T02:01:13;100283.31;;;7.54;100.00
10852;BME280;5479;52.046;6.314;2022-11-24T02:03:43;100286.69;;;7.56;100.00
10852;BME280;5479;52.046;6.314;2022-11-24T02:06:14;100292.66;;;7.59;100.00
10852;BME280;5479;52.046;6.314;2022-11-24T02:08:50;100280.41;;;7.58;100.00
10852;BME280;5479;52.046;6.314;2022-11-24T02:11:21;100281.75;;;7.50;100.00
10852;BME280;5479;52.046;6.314;2022-11-24T02:13:53;100291.63;;;7.46;100.00
10852;BME280;5479;52.046;6.314;2022-11-24T02:16:22;100288.41;;;7.57;100.00
10852;BME280;5479;52.046;6.314;2022-11-24T02:18:51;100290.19;;;7.72;100.00
10852;BME280;5479;52.046;6.314;2022-11-24T02:21:20;100289.69;;;7.81;100.00
10852;BME280;5479;52.046;6.314;2022-11-24T02:23:54;100286.69;;;7.87;100.00
10852;BME280;5479;52.046;6.314;2022-11-24T02:26:32;100298.41;;;7.81;100.00
10852;BME280;5479;52.046;6.314;2022-11-24T02:29:02;100308.13;;;7.81;100.00
10852;BME280;5479;52.046;6.314;2022-11-24T02:31:30;100306.59;;;7.77;100.00
10852;BME280;5479;52.046;6.314;2022-11-24T02:33:58;100306.25;;;7.67;100.00
10852;BME280;5479;52.046;6.314;2022-11-24T02:36:26;100310.50;;;7.70;100.00
10852;BME280;5479;52.046;6.314;2022-11-24T02:38:54;100305.72;;;7.76;100.00
10852;BME280;5479;52.046;6.314;2022-11-24T02:41:24;100313.47;;;7.79;100.00
10852;BME280;5479;52.046;6.314;2022-11-24T02:43:58;100306.25;;;7.83;100.00
10852;BME280;5479;52.046;6.314;2022-11-24T02:46:26;100313.56;;;7.78;100.00
10852;BME280;5479;52.046;6.314;2022-11-24T02:48:54;100310.94;;;7.78;100.00
10852;BME280;5479;52.046;6.314;2022-11-24T02:51:23;100308.38;;;7.76;100.00
10852;BME280;5479;52.046;6.314;2022-11-24T02:53:51;100308.63;;;7.72;100.00
10852;BME280;5479;52.046;6.314;2022-11-24T02:56:19;100322.06;;;7.67;100.00
10852;BME280;5479;52.046;6.314;2022-11-24T02:58:47;100315.84;;;7.68;100.00
10852;BME280;5479;52.046;6.314;2022-11-24T03:01:16;100327.19;;;7.70;100.00
10852;BME280;5479;52.046;6.314;2022-11-24T03:03:44;100320.25;;;7.68;100.00
10852;BME280;5479;52.046;6.314;2022-11-24T03:06:12;100322.91;;;7.68;100.00
10852;BME280;5479;52.046;6.314;2022-11-24T03:08:40;100316.81;;;7.67;100.00
10852;BME280;5479;52.046;6.314;2022-11-24T03:11:09;100325.63;;;7.66;100.00
10852;BME280;5479;52.046;6.314;2022-11-24T03:13:37;100318.91;;;7.61;100.00
10852;BME280;5479;52.046;6.314;2022-11-24T03:16:07;100323.91;;;7.65;100.00
10852;BME280;5479;52.046;6.314;2022-11-24T03:18:37;100324.28;;;7.75;100.00
10852;BME280;5479;52.046;6.314;2022-11-24T03:21:06;100324.78;;;7.66;100.00
10852;BME280;5479;52.046;6.314;2022-11-24T03:23:34;100323.41;;;7.59;100.00
10852;BME280;5479;52.046;6.314;2022-11-24T03:26:06;100320.84;;;7.57;100.00
10852;BME280;5479;52.046;6.314;2022-11-24T03:28:35;100317.19;;;7.60;100.00
10852;BME280;5479;52.046;6.314;2022-11-24T03:31:03;100321.09;;;7.53;100.00
10852;BME280;5479;52.046;6.314;2022-11-24T03:33:32;100329.78;;;7.55;100.00
10852;BME280;5479;52.046;6.314;2022-11-24T03:36:02;100331.47;;;7.56;100.00
10852;BME280;5479;52.046;6.314;2022-11-24T03:38:30;100332.56;;;7.52;100.00
10852;BME280;5479;52.046;6.314;2022-11-24T03:40:58;100334.22;;;7.54;100.00
10852;BME280;5479;52.046;6.314;2022-11-24T03:43:26;100339.72;;;7.50;100.00
10852;BME280;5479;52.046;6.314;2022-11-24T03:45:54;100336.16;;;7.51;100.00
10852;BME280;5479;52.046;6.314;2022-11-24T03:48:22;100345.50;;;7.56;100.00
10852;BME280;5479;52.046;6.314;2022-11-24T03:50:54;100340.31;;;7.55;100.00
10852;BME280;5479;52.046;6.314;2022-11-24T03:53:26;100344.50;;;7.59;100.00
10852;BME280;5479;52.046;6.314;2022-11-24T03:55:54;100352.66;;;7.54;100.00
10852;BME280;5479;52.046;6.314;2022-11-24T03:58:23;100351.69;;;7.55;100.00
10852;BME280;5479;52.046;6.314;2022-11-24T04:00:52;100359.09;;;7.49;100.00
10852;BME280;5479;52.046;6.314;2022-11-24T04:03:20;100365.91;;;7.53;100.00
10852;BME280;5479;52.046;6.314;2022-11-24T04:05:49;100363.00;;;7.57;100.00
10852;BME280;5479;52.046;6.314;2022-11-24T04:08:18;100359.78;;;7.52;100.00
10852;BME280;5479;52.046;6.314;2022-11-24T04:10:50;100366.81;;;7.52;100.00
10852;BME280;5479;52.046;6.314;2022-11-24T04:13:20;100369.53;;;7.50;100.00
10852;BME280;5479;52.046;6.314;2022-11-24T04:15:47;100369.88;;;7.44;100.00
10852;BME280;5479;52.046;6.314;2022-11-24T04:18:17;100381.69;;;7.53;100.00
10852;BME280;5479;52.046;6.314;2022-11-24T04:20:45;100380.84;;;7.52;100.00
10852;BME280;5479;52.046;6.314;2022-11-24T04:23:15;100380.00;;;7.52;100.00
10852;BME280;5479;52.046;6.314;2022-11-24T04:25:43;100391.38;;;7.52;100.00
10852;BME280;5479;52.046;6.314;2022-11-24T04:28:12;100386.81;;;7.56;100.00
10852;BME280;5479;52.046;6.314;2022-11-24T04:30:40;100390.06;;;7.61;100.00
10852;BME280;5479;52.046;6.314;2022-11-24T04:33:10;100390.75;;;7.64;100.00
10852;BME280;5479;52.046;6.314;2022-11-24T04:35:39;100390.06;;;7.61;100.00
10852;BME280;5479;52.046;6.314;2022-11-24T04:38:07;100390.22;;;7.58;100.00
10852;BME280;5479;52.046;6.314;2022-11-24T04:40:35;100395.03;;;7.50;100.00
10852;BME280;5479;52.046;6.314;2022-11-24T04:43:03;100396.66;;;7.52;100.00
10852;BME280;5479;52.046;6.314;2022-11-24T04:45:32;100394.28;;;7.48;100.00
10852;BME280;5479;52.046;6.314;2022-11-24T04:48:02;100399.38;;;7.51;100.00
10852;BME280;5479;52.046;6.314;2022-11-24T04:50:30;100402.94;;;7.50;100.00
10852;BME280;5479;52.046;6.314;2022-11-24T04:52:58;100409.06;;;7.50;100.00
10852;BME280;5479;52.046;6.314;2022-11-24T04:55:26;100414.44;;;7.49;100.00
10852;BME280;5479;52.046;6.314;2022-11-24T04:57:54;100413.47;;;7.50;100.00
10852;BME280;5479;52.046;6.314;2022-11-24T05:00:22;100419.28;;;7.56;100.00
10852;BME280;5479;52.046;6.314;2022-11-24T05:02:53;100428.66;;;7.62;100.00
10852;BME280;5479;52.046;6.314;2022-11-24T05:05:21;100423.38;;;7.62;100.00
10852;BME280;5479;52.046;6.314;2022-11-24T05:07:49;100430.78;;;7.71;100.00
10852;BME280;5479;52.046;6.314;2022-11-24T05:10:17;100427.13;;;7.73;100.00
10852;BME280;5479;52.046;6.314;2022-11-24T05:13:05;100426.06;;;7.77;100.00
10852;BME280;5479;52.046;6.314;2022-11-24T05:15:33;100431.56;;;7.73;100.00
10852;BME280;5479;52.046;6.314;2022-11-24T05:18:05;100436.75;;;7.74;100.00
10852;BME280;5479;52.046;6.314;2022-11-24T05:20:34;100447.28;;;7.74;100.00
10852;BME280;5479;52.046;6.314;2022-11-24T05:23:02;100444.25;;;7.82;100.00
10852;BME280;5479;52.046;6.314;2022-11-24T05:25:31;100443.81;;;7.74;100.00
10852;BME280;5479;52.046;6.314;2022-11-24T05:28:02;100441.94;;;7.76;100.00
10852;BME280;5479;52.046;6.314;2022-11-24T05:30:31;100448.78;;;7.63;100.00
10852;BME280;5479;52.046;6.314;2022-11-24T05:33:04;100441.59;;;7.66;100.00
10852;BME280;5479;52.046;6.314;2022-11-24T05:35:33;100447.19;;;7.76;100.00
10852;BME280;5479;52.046;6.314;2022-11-24T05:38:02;100454.72;;;7.83;100.00
10852;BME280;5479;52.046;6.314;2022-11-24T05:40:30;100461.63;;;7.86;100.00
10852;BME280;5479;52.046;6.314;2022-11-24T05:42:59;100462.81;;;7.96;100.00
10852;BME280;5479;52.046;6.314;2022-11-24T05:45:27;100468.78;;;8.00;100.00
10852;BME280;5479;52.046;6.314;2022-11-24T05:48:03;100474.72;;;8.03;100.00
10852;BME280;5479;52.046;6.314;2022-11-24T05:50:33;100479.78;;;8.08;100.00
10852;BME280;5479;52.046;6.314;2022-11-24T05:53:02;100481.47;;;8.09;100.00
10852;BME280;5479;52.046;6.314;2022-11-24T05:55:30;100485.88;;;8.08;100.00
10852;BME280;5479;52.046;6.314;2022-11-24T05:57:59;100493.03;;;8.06;100.00
10852;BME280;5479;52.046;6.314;2022-11-24T06:00:28;100493.03;;;8.06;100.00
10852;BME280;5479;52.046;6.314;2022-11-24T06:02:57;100494.22;;;8.16;100.00
10852;BME280;5479;52.046;6.314;2022-11-24T06:05:26;100503.97;;;8.16;100.00
10852;BME280;5479;52.046;6.314;2022-11-24T06:07:57;100509.91;;;8.19;100.00
10852;BME280;5479;52.046;6.314;2022-11-24T06:10:25;100507.50;;;8.15;100.00
10852;BME280;5479;52.046;6.314;2022-11-24T06:12:54;100504.94;;;8.13;100.00
10852;BME280;5479;52.046;6.314;2022-11-24T06:15:22;100509.28;;;8.14;100.00
10852;BME280;5479;52.046;6.314;2022-11-24T06:17:53;100513.81;;;8.12;100.00
10852;BME280;5479;52.046;6.314;2022-11-24T06:20:22;100511.06;;;8.14;100.00
10852;BME280;5479;52.046;6.314;2022-11-24T06:22:50;100522.31;;;8.17;100.00
10852;BME280;5479;52.046;6.314;2022-11-24T06:25:19;100523.00;;;8.21;100.00
10852;BME280;5479;52.046;6.314;2022-11-24T06:27:47;100529.97;;;8.22;100.00
10852;BME280;5479;52.046;6.314;2022-11-24T06:30:15;100534.59;;;8.18;100.00
10852;BME280;5479;52.046;6.314;2022-11-24T06:32:43;100548.69;;;8.17;100.00
10852;BME280;5479;52.046;6.314;2022-11-24T06:35:12;100556.59;;;8.17;100.00
10852;BME280;5479;52.046;6.314;2022-11-24T06:37:40;100560.25;;;8.15;100.00
10852;BME280;5479;52.046;6.314;2022-11-24T06:40:08;100565.28;;;8.19;100.00
10852;BME280;5479;52.046;6.314;2022-11-24T06:42:38;100573.34;;;8.16;100.00
10852;BME280;5479;52.046;6.314;2022-11-24T06:45:06;100565.53;;;8.15;100.00
10852;BME280;5479;52.046;6.314;2022-11-24T06:47:34;100583.91;;;8.16;100.00
10852;BME280;5479;52.046;6.314;2022-11-24T06:50:03;100588.34;;;8.16;100.00
10852;BME280;5479;52.046;6.314;2022-11-24T06:52:32;100594.44;;;8.16;100.00
10852;BME280;5479;52.046;6.314;2022-11-24T06:55:00;100602.31;;;8.18;100.00
10852;BME280;5479;52.046;6.314;2022-11-24T06:57:28;100602.38;;;8.16;100.00
10852;BME280;5479;52.046;6.314;2022-11-24T06:59:58;100615.56;;;8.16;100.00
10852;BME280;5479;52.046;6.314;2022-11-24T07:02:27;100626.25;;;8.13;100.00
10852;BME280;5479;52.046;6.314;2022-11-24T07:04:55;100624.47;;;8.14;100.00
10852;BME280;5479;52.046;6.314;2022-11-24T07:07:23;100621.19;;;8.10;100.00
10852;BME280;5479;52.046;6.314;2022-11-24T07:09:51;100628.47;;;8.05;100.00
10852;BME280;5479;52.046;6.314;2022-11-24T07:12:19;100632.94;;;8.03;100.00
10852;BME280;5479;52.046;6.314;2022-11-24T07:14:46;100644.28;;;8.05;100.00
10852;BME280;5479;52.046;6.314;2022-11-24T07:17:16;100642.56;;;8.04;100.00
10852;BME280;5479;52.046;6.314;2022-11-24T07:19:44;100647.00;;;8.04;100.00
10852;BME280;5479;52.046;6.314;2022-11-24T07:22:13;100652.72;;;7.95;100.00
10852;BME280;5479;52.046;6.314;2022-11-24T07:24:42;100655.59;;;7.90;100.00
10852;BME280;5479;52.046;6.314;2022-11-24T07:27:10;100667.09;;;7.89;100.00
10852;BME280;5479;52.046;6.314;2022-11-24T07:29:38;100660.88;;;7.90;100.00
10852;BME280;5479;52.046;6.314;2022-11-24T07:32:06;100671.41;;;7.90;100.00
10852;BME280;5479;52.046;6.314;2022-11-24T07:34:35;100676.94;;;7.85;100.00
10852;BME280;5479;52.046;6.314;2022-11-24T07:37:03;100674.19;;;7.87;100.00
10852;BME280;5479;52.046;6.314;2022-11-24T07:39:31;100686.53;;;7.86;100.00
10852;BME280;5479;52.046;6.314;2022-11-24T07:42:00;100685.69;;;7.86;100.00
10852;BME280;5479;52.046;6.314;2022-11-24T07:44:30;100696.38;;;7.83;100.00
10852;BME280;5479;52.046;6.314;2022-11-24T07:46:58;100697.94;;;7.87;100.00
10852;BME280;5479;52.046;6.314;2022-11-24T07:49:26;100691.88;;;7.85;100.00
10852;BME280;5479;52.046;6.314;2022-11-24T07:51:56;100699.81;;;7.85;100.00
10852;BME280;5479;52.046;6.314;2022-11-24T07:54:23;100690.81;;;7.89;100.00
10852;BME280;5479;52.046;6.314;2022-11-24T07:56:52;100707.56;;;7.88;100.00
10852;BME280;5479;52.046;6.314;2022-11-24T07:59:19;100711.28;;;8.01;100.00
10852;BME280;5479;52.046;6.314;2022-11-24T08:01:47;100719.28;;;8.00;100.00
10852;BME280;5479;52.046;6.314;2022-11-24T08:04:15;100723.56;;;8.02;100.00
10852;BME280;5479;52.046;6.314;2022-11-24T08:06:43;100725.56;;;7.97;100.00
10852;BME280;5479;52.046;6.314;2022-11-24T08:09:12;100721.13;;;7.98;100.00
10852;BME280;5479;52.046;6.314;2022-11-24T08:11:41;100729.38;;;8.09;100.00
10852;BME280;5479;52.046;6.314;2022-11-24T08:14:08;100735.34;;;8.12;100.00
10852;BME280;5479;52.046;6.314;2022-11-24T08:16:36;100732.22;;;8.21;100.00
10852;BME280;5479;52.046;6.314;2022-11-24T08:19:05;100738.66;;;8.34;100.00
10852;BME280;5479;52.046;6.314;2022-11-24T08:21:33;100744.28;;;8.27;100.00
10852;BME280;5479;52.046;6.314;2022-11-24T08:24:00;100748.41;;;8.32;100.00
10852;BME280;5479;52.046;6.314;2022-11-24T08:26:30;100742.34;;;8.30;100.00
10852;BME280;5479;52.046;6.314;2022-11-24T08:28:58;100751.91;;;8.33;100.00
10852;BME280;5479;52.046;6.314;2022-11-24T08:31:27;100752.22;;;8.44;100.00
10852;BME280;5479;52.046;6.314;2022-11-24T08:33:58;100757.41;;;8.45;100.00
10852;BME280;5479;52.046;6.314;2022-11-24T08:36:26;100748.47;;;8.48;100.00
10852;BME280;5479;52.046;6.314;2022-11-24T08:38:55;100763.13;;;8.54;100.00
10852;BME280;5479;52.046;6.314;2022-11-24T08:41:24;100764.25;;;8.49;100.00
10852;BME280;5479;52.046;6.314;2022-11-24T08:43:54;100769.22;;;8.56;100.00
10852;BME280;5479;52.046;6.314;2022-11-24T08:46:22;100778.66;;;8.60;100.00
10852;BME280;5479;52.046;6.314;2022-11-24T08:48:53;100779.38;;;8.63;100.00
10852;BME280;5479;52.046;6.314;2022-11-24T08:51:23;100783.88;;;8.61;100.00
10852;BME280;5479;52.046;6.314;2022-11-24T08:53:53;100787.69;;;8.56;100.00
10852;BME280;5479;52.046;6.314;2022-11-24T08:56:21;100797.09;;;8.61;100.00
10852;BME280;5479;52.046;6.314;2022-11-24T08:58:49;100795.38;;;8.60;100.00
10852;BME280;5479;52.046;6.314;2022-11-24T09:01:19;100799.78;;;8.60;100.00
10852;BME280;5479;52.046;6.314;2022-11-24T09:03:48;100795.47;;;8.59;100.00
10852;BME280;5479;52.046;6.314;2022-11-24T09:06:17;100793.59;;;8.61;100.00
10852;BME280;5479;52.046;6.314;2022-11-24T09:08:48;100799.22;;;8.87;100.00
10852;BME280;5479;52.046;6.314;2022-11-24T09:11:17;100791.34;;;9.51;100.00
10852;BME280;5479;52.046;6.314;2022-11-24T09:13:46;100793.16;;;10.43;100.00
10852;BME280;5479;52.046;6.314;2022-11-24T09:16:16;100796.22;;;10.51;100.00
10852;BME280;5479;52.046;6.314;2022-11-24T09:18:47;100803.53;;;10.32;100.00
10852;BME280;5479;52.046;6.314;2022-11-24T09:21:21;100807.22;;;10.14;100.00
10852;BME280;5479;52.046;6.314;2022-11-24T09:23:50;100806.19;;;9.85;100.00
10852;BME280;5479;52.046;6.314;2022-11-24T09:26:19;100812.84;;;9.77;100.00
10852;BME280;5479;52.046;6.314;2022-11-24T09:28:47;100812.34;;;9.70;100.00
10852;BME280;5479;52.046;6.314;2022-11-24T09:31:16;100823.19;;;9.81;100.00
10852;BME280;5479;52.046;6.314;2022-11-24T09:33:47;100824.22;;;9.79;100.00
10852;BME280;5479;52.046;6.314;2022-11-24T09:36:15;100832.97;;;9.79;100.00
10852;BME280;5479;52.046;6.314;2022-11-24T09:38:43;100839.28;;;9.77;100.00
10852;BME280;5479;52.046;6.314;2022-11-24T09:41:32;100837.91;;;9.69;100.00
10852;BME280;5479;52.046;6.314;2022-11-24T09:44:07;100836.88;;;9.56;100.00
10852;BME280;5479;52.046;6.314;2022-11-24T09:46:42;100844.56;;;9.61;100.00
10852;BME280;5479;52.046;6.314;2022-11-24T09:49:23;100845.16;;;9.50;100.00
10852;BME280;5479;52.046;6.314;2022-11-24T09:51:55;100858.88;;;9.41;100.00
10852;BME280;5479;52.046;6.314;2022-11-24T09:54:27;100861.97;;;9.49;100.00
10852;BME280;5479;52.046;6.314;2022-11-24T09:56:58;100860.34;;;9.62;100.00
10852;BME280;5479;52.046;6.314;2022-11-24T09:59:27;100857.72;;;10.25;100.00
10852;BME280;5479;52.046;6.314;2022-11-24T10:01:55;100858.28;;;10.91;100.00
10852;BME280;5479;52.046;6.314;2022-11-24T10:04:27;100870.72;;;10.89;100.00
10852;BME280;5479;52.046;6.314;2022-11-24T10:07:02;100884.00;;;10.59;100.00
10852;BME280;5479;52.046;6.314;2022-11-24T10:09:44;100878.41;;;10.34;100.00
10852;BME280;5479;52.046;6.314;2022-11-24T10:12:25;100874.56;;;10.24;100.00
10852;BME280;5479;52.046;6.314;2022-11-24T10:15:17;100885.75;;;10.13;100.00
10852;BME280;5479;52.046;6.314;2022-11-24T10:17:57;100885.00;;;10.57;100.00
10852;BME280;5479;52.046;6.314;2022-11-24T10:20:40;100883.03;;;11.62;100.00
10852;BME280;5479;52.046;6.314;2022-11-24T10:23:22;100875.59;;;12.63;100.00
10852;BME280;5479;52.046;6.314;2022-11-24T10:25:56;100879.25;;;13.52;100.00
10852;BME280;5479;52.046;6.314;2022-11-24T10:28:28;100883.53;;;13.29;100.00
10852;BME280;5479;52.046;6.314;2022-11-24T10:31:14;100891.31;;;12.53;100.00
10852;BME280;5479;52.046;6.314;2022-11-24T10:33:45;100891.94;;;11.61;100.00
10852;BME280;5479;52.046;6.314;2022-11-24T10:36:19;100898.81;;;11.21;100.00
10852;BME280;5479;52.046;6.314;2022-11-24T10:38:53;100909.53;;;10.90;100.00
10852;BME280;5479;52.046;6.314;2022-11-24T10:41:27;100907.38;;;10.67;100.00
10852;BME280;5479;52.046;6.314;2022-11-24T10:44:01;100905.00;;;10.62;100.00
10852;BME280;5479;52.046;6.314;2022-11-24T10:46:29;100902.91;;;10.67;100.00
10852;BME280;5479;52.046;6.314;2022-11-24T10:49:00;100915.97;;;11.30;100.00
10852;BME280;5479;52.046;6.314;2022-11-24T10:51:43;100902.75;;;13.07;100.00
10852;BME280;5479;52.046;6.314;2022-11-24T10:54:16;100912.97;;;14.38;100.00
10852;BME280;5479;52.046;6.314;2022-11-24T10:56:45;100910.78;;;15.25;100.00
10852;BME280;5479;52.046;6.314;2022-11-24T10:59:31;100909.91;;;15.82;100.00
10852;BME280;5479;52.046;6.314;2022-11-24T11:02:01;100914.00;;;16.19;96.26
10852;BME280;5479;52.046;6.314;2022-11-24T11:04:30;100912.53;;;16.37;93.90
10852;BME280;5479;52.046;6.314;2022-11-24T11:07:15;100909.81;;;16.48;88.52
10852;BME280;5479;52.046;6.314;2022-11-24T11:09:46;100909.25;;;16.56;85.70
10852;BME280;5479;52.046;6.314;2022-11-24T11:12:22;100910.81;;;16.47;88.85
10852;BME280;5479;52.046;6.314;2022-11-24T11:14:50;100918.28;;;16.75;85.57
10852;BME280;5479;52.046;6.314;2022-11-24T11:17:33;100915.53;;;17.18;83.42
10852;BME280;5479;52.046;6.314;2022-11-24T11:20:04;100919.44;;;17.14;79.38
10852;BME280;5479;52.046;6.314;2022-11-24T11:22:36;100917.63;;;17.35;76.77
10852;BME280;5479;52.046;6.314;2022-11-24T11:25:15;100925.50;;;17.78;76.91
10852;BME280;5479;52.046;6.314;2022-11-24T11:27:44;100929.59;;;18.13;71.45
10852;BME280;5479;52.046;6.314;2022-11-24T11:30:20;100926.38;;;18.19;70.49
10852;BME280;5479;52.046;6.314;2022-11-24T11:32:54;100932.47;;;17.60;71.10
10852;BME280;5479;52.046;6.314;2022-11-24T11:35:23;100937.38;;;17.03;76.49
10852;BME280;5479;52.046;6.314;2022-11-24T11:37:56;100945.13;;;16.09;81.78
10852;BME280;5479;52.046;6.314;2022-11-24T11:40:29;100945.81;;;14.86;95.08
10852;BME280;5479;52.046;6.314;2022-11-24T11:43:01;100959.63;;;14.43;100.00
10852;BME280;5479;52.046;6.314;2022-11-24T11:45:34;100959.72;;;13.68;100.00
10852;BME280;5479;52.046;6.314;2022-11-24T11:48:18;100952.16;;;12.97;100.00
10852;BME280;5479;52.046;6.314;2022-11-24T11:50:53;100960.75;;;12.47;100.00
10852;BME280;5479;52.046;6.314;2022-11-24T11:53:32;100961.50;;;12.49;100.00
10852;BME280;5479;52.046;6.314;2022-11-24T11:56:13;100960.63;;;12.63;100.00
10852;BME280;5479;52.046;6.314;2022-11-24T11:59:11;100960.19;;;12.83;100.00
10852;BME280;5479;52.046;6.314;2022-11-24T12:01:58;100955.00;;;12.94;100.00
10852;BME280;5479;52.046;6.314;2022-11-24T12:04:40;100959.78;;;12.89;100.00
10852;BME280;5479;52.046;6.314;2022-11-24T12:07:29;100953.50;;;12.63;100.00
10852;BME280;5479;52.046;6.314;2022-11-24T12:10:10;100958.44;;;12.15;100.00
10852;BME280;5479;52.046;6.314;2022-11-24T12:12:51;100966.59;;;12.26;100.00
10852;BME280;5479;52.046;6.314;2022-11-24T12:15:27;100959.88;;;12.20;100.00
10852;BME280;5479;52.046;6.314;2022-11-24T12:18:08;100961.50;;;12.08;100.00
10852;BME280;5479;52.046;6.314;2022-11-24T12:20:49;100959.22;;;12.17;100.00
10852;BME280;5479;52.046;6.314;2022-11-24T12:23:28;100963.94;;;12.26;100.00
10852;BME280;5479;52.046;6.314;2022-11-24T12:26:05;100964.91;;;11.96;100.00
10852;BME280;5479;52.046;6.314;2022-11-24T12:28:42;100955.66;;;11.89;100.00
10852;BME280;5479;52.046;6.314;2022-11-24T12:31:19;100942.94;;;11.94;100.00
10852;BME280;5479;52.046;6.314;2022-11-24T12:34:12;100939.34;;;11.95;100.00
10852;BME280;5479;52.046;6.314;2022-11-24T12:36:55;100945.31;;;11.85;100.00
10852;BME280;5479;52.046;6.314;2022-11-24T12:39:30;100943.50;;;11.85;100.00
10852;BME280;5479;52.046;6.314;2022-11-24T12:42:08;100951.19;;;11.90;100.00
10852;BME280;5479;52.046;6.314;2022-11-24T12:45:12;100956.41;;;12.05;100.00
10852;BME280;5479;52.046;6.314;2022-11-24T12:47:57;100955.78;;;12.15;100.00
10852;BME280;5479;52.046;6.314;2022-11-24T12:50:34;100954.41;;;12.09;100.00
10852;BME280;5479;52.046;6.314;2022-11-24T12:53:07;100958.13;;;11.92;100.00
10852;BME280;5479;52.046;6.314;2022-11-24T12:55:39;100961.50;;;11.94;100.00
10852;BME280;5479;52.046;6.314;2022-11-24T12:58:15;100955.53;;;12.05;100.00
10852;BME280;5479;52.046;6.314;2022-11-24T13:00:55;100956.75;;;12.14;100.00
10852;BME280;5479;52.046;6.314;2022-11-24T13:03:33;100955.59;;;12.18;100.00
10852;BME280;5479;52.046;6.314;2022-11-24T13:06:09;100957.13;;;12.07;100.00
10852;BME280;5479;52.046;6.314;2022-11-24T13:08:39;100959.03;;;12.05;100.00
10852;BME280;5479;52.046;6.314;2022-11-24T13:11:33;100961.22;;;11.99;100.00
10852;BME280;5479;52.046;6.314;2022-11-24T13:14:10;100959.13;;;12.04;100.00
10852;BME280;5479;52.046;6.314;2022-11-24T13:16:48;100969.47;;;12.08;100.00
10852;BME280;5479;52.046;6.314;2022-11-24T13:19:18;100965.03;;;12.09;100.00